sensor_id;sensor_type;location;lat;lon;timestamp;pressure;altitude;pressure_sealevel;temperature
79148;BMP280;68562;51.600;6.524;2023-08-01T00:00:01;997.9;;;19.4
79148;BMP280;68562;51.600;6.524;2023-08-01T00:05:00;997.8;;;19.3
79148;BMP280;68562;51.600;6.524;2023-08-01T00:10:00;997.9;;;19.3
79148;BMP280;68562;51.600;6.524;2023-08-01T00:15:00;997.8;;;19.2
79148;BMP280;68562;51.600;6.524;2023-08-01T00:20:00;997.8;;;19.3
79148;BMP280;68562;51.600;6.524;2023-08-01T00:25:00;997.6;;;19.2
79148;BMP280;68562;51.600;6.524;2023-08-01T00:30:00;997.6;;;19.2
79148;BMP280;68562;51.600;6.524;2023-08-01T00:35:00;997.6;;;19.1
79148;BMP280;68562;51.600;6.524;2023-08-01T00:40:00;997.6;;;19.1
79148;BMP280;68562;51.600;6.524;2023-08-01T00:45:00;997.4;;;19.1
79148;BMP280;68562;51.600;6.524;2023-08-01T00:50:01;997.2;;;19.1
79148;BMP280;68562;51.600;6.524;2023-08-01T00:55:00;997.2;;;19.1
79148;BMP280;68562;51.600;6.524;2023-08-01T01:00:00;997.2;;;19.2
79148;BMP280;68562;51.600;6.524;2023-08-01T01:05:00;997.1;;;19.2
79148;BMP280;68562;51.600;6.524;2023-08-01T01:10:00;997.2;;;19.1
79148;BMP280;68562;51.600;6.524;2023-08-01T01:15:00;997.0;;;19.1
79148;BMP280;68562;51.600;6.524;2023-08-01T01:20:00;997.1;;;19.1
79148;BMP280;68562;51.600;6.524;2023-08-01T01:25:01;997.0;;;19.1
79148;BMP280;68562;51.600;6.524;2023-08-01T01:30:00;996.9;;;19.2
79148;BMP280;68562;51.600;6.524;2023-08-01T01:35:01;996.9;;;19.2
79148;BMP280;68562;51.600;6.524;2023-08-01T01:40:00;996.9;;;19.1
79148;BMP280;68562;51.600;6.524;2023-08-01T01:45:00;996.8;;;19.2
79148;BMP280;68562;51.600;6.524;2023-08-01T01:50:00;996.8;;;19.1
79148;BMP280;68562;51.600;6.524;2023-08-01T01:55:00;996.8;;;19.2
79148;BMP280;68562;51.600;6.524;2023-08-01T02:00:00;996.9;;;19.1
79148;BMP280;68562;51.600;6.524;2023-08-01T02:05:00;996.8;;;19.2
79148;BMP280;68562;51.600;6.524;2023-08-01T02:10:00;996.8;;;19.1
79148;BMP280;68562;51.600;6.524;2023-08-01T02:15:00;996.7;;;19.1
79148;BMP280;68562;51.600;6.524;2023-08-01T02:20:00;996.8;;;19.1
79148;BMP280;68562;51.600;6.524;2023-08-01T02:25:00;996.9;;;19.1
79148;BMP280;68562;51.600;6.524;2023-08-01T02:30:00;996.8;;;19.0
79148;BMP280;68562;51.600;6.524;2023-08-01T02:35:00;996.8;;;19.1
79148;BMP280;68562;51.600;6.524;2023-08-01T02:40:01;996.8;;;19.0
79148;BMP280;68562;51.600;6.524;2023-08-01T02:45:00;996.9;;;19.0
79148;BMP280;68562;51.600;6.524;2023-08-01T02:50:00;996.9;;;18.9
79148;BMP280;68562;51.600;6.524;2023-08-01T02:55:00;997.0;;;18.9
79148;BMP280;68562;51.600;6.524;2023-08-01T03:00:00;997.0;;;18.8
79148;BMP280;68562;51.600;6.524;2023-08-01T03:05:00;997.0;;;18.7
79148;BMP280;68562;51.600;6.524;2023-08-01T03:10:00;997.1;;;18.6
79148;BMP280;68562;51.600;6.524;2023-08-01T03:15:00;997.1;;;18.5
79148;BMP280;68562;51.600;6.524;2023-08-01T03:20:00;997.1;;;18.5
79148;BMP280;68562;51.600;6.524;2023-08-01T03:25:00;997.2;;;18.4
79148;BMP280;68562;51.600;6.524;2023-08-01T03:30:00;997.2;;;18.4
79148;BMP280;68562;51.600;6.524;2023-08-01T03:35:00;997.1;;;18.3
79148;BMP280;68562;51.600;6.524;2023-08-01T03:40:00;997.1;;;18.3
79148;BMP280;68562;51.600;6.524;2023-08-01T03:45:00;997.2;;;18.4
79148;BMP280;68562;51.600;6.524;2023-08-01T03:50:01;997.1;;;18.2
79148;BMP280;68562;51.600;6.524;2023-08-01T03:55:00;997.2;;;18.2
79148;BMP280;68562;51.600;6.524;2023-08-01T04:00:00;997.2;;;18.0
79148;BMP280;68562;51.600;6.524;2023-08-01T04:05:00;997.3;;;18.0
79148;BMP280;68562;51.600;6.524;2023-08-01T04:10:00;997.3;;;18.0
79148;BMP280;68562;51.600;6.524;2023-08-01T04:15:00;997.3;;;18.0
79148;BMP280;68562;51.600;6.524;2023-08-01T04:20:00;997.4;;;18.1
79148;BMP280;68562;51.600;6.524;2023-08-01T04:25:01;997.4;;;18.2
79148;BMP280;68562;51.600;6.524;2023-08-01T04:30:00;997.4;;;18.1
79148;BMP280;68562;51.600;6.524;2023-08-01T04:35:00;997.5;;;18.2
79148;BMP280;68562;51.600;6.524;2023-08-01T04:40:00;997.5;;;18.2
79148;BMP280;68562;51.600;6.524;2023-08-01T04:45:00;997.5;;;18.2
79148;BMP280;68562;51.600;6.524;2023-08-01T04:50:00;997.5;;;18.1
79148;BMP280;68562;51.600;6.524;2023-08-01T04:55:00;997.4;;;18.2
79148;BMP280;68562;51.600;6.524;2023-08-01T05:00:00;997.5;;;18.2
79148;BMP280;68562;51.600;6.524;2023-08-01T05:05:00;997.5;;;18.2
79148;BMP280;68562;51.600;6.524;2023-08-01T05:10:00;997.5;;;18.2
79148;BMP280;68562;51.600;6.524;2023-08-01T05:15:00;997.5;;;18.1
79148;BMP280;68562;51.600;6.524;2023-08-01T05:20:00;997.5;;;18.2
79148;BMP280;68562;51.600;6.524;2023-08-01T05:25:00;997.6;;;18.2
79148;BMP280;68562;51.600;6.524;2023-08-01T05:30:00;997.6;;;18.2
79148;BMP280;68562;51.600;6.524;2023-08-01T05:35:00;997.6;;;18.2
79148;BMP280;68562;51.600;6.524;2023-08-01T05:40:00;997.6;;;18.2
79148;BMP280;68562;51.600;6.524;2023-08-01T05:45:00;997.7;;;18.2
79148;BMP280;68562;51.600;6.524;2023-08-01T05:50:00;997.7;;;18.3
79148;BMP280;68562;51.600;6.524;2023-08-01T05:55:00;997.8;;;18.4
79148;BMP280;68562;51.600;6.524;2023-08-01T06:00:00;997.8;;;18.4
79148;BMP280;68562;51.600;6.524;2023-08-01T06:05:00;997.8;;;18.4
79148;BMP280;68562;51.600;6.524;2023-08-01T06:10:00;997.8;;;18.4
79148;BMP280;68562;51.600;6.524;2023-08-01T06:15:00;997.8;;;18.5
79148;BMP280;68562;51.600;6.524;2023-08-01T06:20:00;997.9;;;18.5
79148;BMP280;68562;51.600;6.524;2023-08-01T06:25:00;997.9;;;18.6
79148;BMP280;68562;51.600;6.524;2023-08-01T06:30:00;997.9;;;18.6
79148;BMP280;68562;51.600;6.524;2023-08-01T06:35:00;997.9;;;18.7
79148;BMP280;68562;51.600;6.524;2023-08-01T06:40:01;997.9;;;18.7
79148;BMP280;68562;51.600;6.524;2023-08-01T06:45:00;998.0;;;18.8
79148;BMP280;68562;51.600;6.524;2023-08-01T06:50:00;998.1;;;18.8
79148;BMP280;68562;51.600;6.524;2023-08-01T06:55:00;998.0;;;19.0
79148;BMP280;68562;51.600;6.524;2023-08-01T07:00:02;998.0;;;19.1
79148;BMP280;68562;51.600;6.524;2023-08-01T07:05:00;998.0;;;19.2
79148;BMP280;68562;51.600;6.524;2023-08-01T07:10:00;998.0;;;19.3
79148;BMP280;68562;51.600;6.524;2023-08-01T07:15:00;998.0;;;19.3
79148;BMP280;68562;51.600;6.524;2023-08-01T07:20:00;998.1;;;19.3
79148;BMP280;68562;51.600;6.524;2023-08-01T07:25:00;998.1;;;19.4
79148;BMP280;68562;51.600;6.524;2023-08-01T07:30:00;998.1;;;19.5
79148;BMP280;68562;51.600;6.524;2023-08-01T07:35:00;998.1;;;19.7
79148;BMP280;68562;51.600;6.524;2023-08-01T07:40:00;998.1;;;19.8
79148;BMP280;68562;51.600;6.524;2023-08-01T07:45:00;998.1;;;19.9
79148;BMP280;68562;51.600;6.524;2023-08-01T07:50:00;998.2;;;20.0
79148;BMP280;68562;51.600;6.524;2023-08-01T07:55:00;998.2;;;20.2
79148;BMP280;68562;51.600;6.524;2023-08-01T08:00:00;998.3;;;20.3
79148;BMP280;68562;51.600;6.524;2023-08-01T08:05:00;998.2;;;20.2
79148;BMP280;68562;51.600;6.524;2023-08-01T08:10:00;998.2;;;20.4
79148;BMP280;68562;51.600;6.524;2023-08-01T08:15:00;998.2;;;20.6
79148;BMP280;68562;51.600;6.524;2023-08-01T08:20:00;998.3;;;20.9
79148;BMP280;68562;51.600;6.524;2023-08-01T08:25:00;998.2;;;21.0
79148;BMP280;68562;51.600;6.524;2023-08-01T08:30:00;998.2;;;21.1
79148;BMP280;68562;51.600;6.524;2023-08-01T08:35:00;998.1;;;21.3
79148;BMP280;68562;51.600;6.524;2023-08-01T08:40:00;998.1;;;21.5
79148;BMP280;68562;51.600;6.524;2023-08-01T08:45:01;998.1;;;21.8
79148;BMP280;68562;51.600;6.524;2023-08-01T08:50:00;998.3;;;22.0
79148;BMP280;68562;51.600;6.524;2023-08-01T08:55:00;998.3;;;22.3
79148;BMP280;68562;51.600;6.524;2023-08-01T09:00:02;998.1;;;22.3
79148;BMP280;68562;51.600;6.524;2023-08-01T09:05:00;998.3;;;22.4
79148;BMP280;68562;51.600;6.524;2023-08-01T09:10:00;998.2;;;22.1
79148;BMP280;68562;51.600;6.524;2023-08-01T09:15:00;998.2;;;22.1
79148;BMP280;68562;51.600;6.524;2023-08-01T09:20:04;998.2;;;22.1
79148;BMP280;68562;51.600;6.524;2023-08-01T09:25:00;998.3;;;21.9
79148;BMP280;68562;51.600;6.524;2023-08-01T09:30:05;998.4;;;21.9
79148;BMP280;68562;51.600;6.524;2023-08-01T09:35:00;998.4;;;21.7
79148;BMP280;68562;51.600;6.524;2023-08-01T09:40:00;998.4;;;21.6
79148;BMP280;68562;51.600;6.524;2023-08-01T09:45:00;998.3;;;21.4
79148;BMP280;68562;51.600;6.524;2023-08-01T09:50:00;998.5;;;21.3
79148;BMP280;68562;51.600;6.524;2023-08-01T09:55:00;998.5;;;21.4
79148;BMP280;68562;51.600;6.524;2023-08-01T10:00:00;998.8;;;21.1
79148;BMP280;68562;51.600;6.524;2023-08-01T10:05:00;998.7;;;21.4
79148;BMP280;68562;51.600;6.524;2023-08-01T10:10:01;998.7;;;21.4
79148;BMP280;68562;51.600;6.524;2023-08-01T10:15:01;998.7;;;21.3
79148;BMP280;68562;51.600;6.524;2023-08-01T10:20:00;998.8;;;21.1
79148;BMP280;68562;51.600;6.524;2023-08-01T10:25:00;998.9;;;20.9
79148;BMP280;68562;51.600;6.524;2023-08-01T10:30:02;998.9;;;20.7
79148;BMP280;68562;51.600;6.524;2023-08-01T10:35:00;998.9;;;20.8
79148;BMP280;68562;51.600;6.524;2023-08-01T10:40:00;998.9;;;21.2
79148;BMP280;68562;51.600;6.524;2023-08-01T10:45:00;998.8;;;21.4
79148;BMP280;68562;51.600;6.524;2023-08-01T10:50:00;998.9;;;21.5
79148;BMP280;68562;51.600;6.524;2023-08-01T10:55:02;998.8;;;21.9
79148;BMP280;68562;51.600;6.524;2023-08-01T11:00:00;998.8;;;22.5
79148;BMP280;68562;51.600;6.524;2023-08-01T11:05:02;998.8;;;22.8
79148;BMP280;68562;51.600;6.524;2023-08-01T11:10:06;998.8;;;23.1
79148;BMP280;68562;51.600;6.524;2023-08-01T11:15:00;998.9;;;23.2
79148;BMP280;68562;51.600;6.524;2023-08-01T11:20:02;999.0;;;23.3
79148;BMP280;68562;51.600;6.524;2023-08-01T11:25:00;999.0;;;23.0
79148;BMP280;68562;51.600;6.524;2023-08-01T11:30:00;999.0;;;23.1
79148;BMP280;68562;51.600;6.524;2023-08-01T11:35:00;999.0;;;23.5
79148;BMP280;68562;51.600;6.524;2023-08-01T11:40:00;999.0;;;24.4
79148;BMP280;68562;51.600;6.524;2023-08-01T11:45:08;999.0;;;25.3
79148;BMP280;68562;51.600;6.524;2023-08-01T11:50:00;999.1;;;25.8
79148;BMP280;68562;51.600;6.524;2023-08-01T11:55:00;999.1;;;25.7
79148;BMP280;68562;51.600;6.524;2023-08-01T12:00:00;999.0;;;25.7
79148;BMP280;68562;51.600;6.524;2023-08-01T12:05:00;999.0;;;25.9
79148;BMP280;68562;51.600;6.524;2023-08-01T12:10:01;999.1;;;26.1
79148;BMP280;68562;51.600;6.524;2023-08-01T12:15:00;999.2;;;26.5
79148;BMP280;68562;51.600;6.524;2023-08-01T12:20:00;999.2;;;26.4
79148;BMP280;68562;51.600;6.524;2023-08-01T12:25:00;999.2;;;26.8
79148;BMP280;68562;51.600;6.524;2023-08-01T12:30:00;999.2;;;27.3
79148;BMP280;68562;51.600;6.524;2023-08-01T12:35:00;999.3;;;27.7
79148;BMP280;68562;51.600;6.524;2023-08-01T12:40:00;999.2;;;27.6
79148;BMP280;68562;51.600;6.524;2023-08-01T12:45:00;999.3;;;27.4
79148;BMP280;68562;51.600;6.524;2023-08-01T12:50:00;999.3;;;26.8
79148;BMP280;68562;51.600;6.524;2023-08-01T12:55:00;999.5;;;26.0
79148;BMP280;68562;51.600;6.524;2023-08-01T13:00:00;999.4;;;25.7
79148;BMP280;68562;51.600;6.524;2023-08-01T13:05:00;999.4;;;26.1
79148;BMP280;68562;51.600;6.524;2023-08-01T13:10:00;999.3;;;26.6
79148;BMP280;68562;51.600;6.524;2023-08-01T13:15:00;999.4;;;26.9
79148;BMP280;68562;51.600;6.524;2023-08-01T13:20:00;999.4;;;27.3
79148;BMP280;68562;51.600;6.524;2023-08-01T13:25:00;999.4;;;28.0
79148;BMP280;68562;51.600;6.524;2023-08-01T13:30:00;999.5;;;28.3
79148;BMP280;68562;51.600;6.524;2023-08-01T13:35:00;999.5;;;28.5
79148;BMP280;68562;51.600;6.524;2023-08-01T13:40:00;999.6;;;28.3
79148;BMP280;68562;51.600;6.524;2023-08-01T13:45:00;999.7;;;28.2
79148;BMP280;68562;51.600;6.524;2023-08-01T13:50:00;999.8;;;28.4
79148;BMP280;68562;51.600;6.524;2023-08-01T13:55:00;999.7;;;28.1
79148;BMP280;68562;51.600;6.524;2023-08-01T14:00:00;999.8;;;28.6
79148;BMP280;68562;51.600;6.524;2023-08-01T14:05:00;999.6;;;29.3
79148;BMP280;68562;51.600;6.524;2023-08-01T14:10:00;999.7;;;29.5
79148;BMP280;68562;51.600;6.524;2023-08-01T14:15:00;999.7;;;30.1
79148;BMP280;68562;51.600;6.524;2023-08-01T14:20:00;999.6;;;30.5
79148;BMP280;68562;51.600;6.524;2023-08-01T14:25:00;999.6;;;30.4
79148;BMP280;68562;51.600;6.524;2023-08-01T14:30:00;999.7;;;30.1
79148;BMP280;68562;51.600;6.524;2023-08-01T14:35:00;999.7;;;29.7
79148;BMP280;68562;51.600;6.524;2023-08-01T14:40:00;999.8;;;30.0
79148;BMP280;68562;51.600;6.524;2023-08-01T14:45:00;999.8;;;30.5
79148;BMP280;68562;51.600;6.524;2023-08-01T14:50:01;999.8;;;30.8
79148;BMP280;68562;51.600;6.524;2023-08-01T14:55:00;999.8;;;30.3
79148;BMP280;68562;51.600;6.524;2023-08-01T15:00:00;999.8;;;29.7
79148;BMP280;68562;51.600;6.524;2023-08-01T15:05:00;999.9;;;29.5
79148;BMP280;68562;51.600;6.524;2023-08-01T15:10:00;999.9;;;29.2
79148;BMP280;68562;51.600;6.524;2023-08-01T15:15:00;999.8;;;28.9
79148;BMP280;68562;51.600;6.524;2023-08-01T15:20:00;999.9;;;28.5
79148;BMP280;68562;51.600;6.524;2023-08-01T15:25:00;999.9;;;28.3
79148;BMP280;68562;51.600;6.524;2023-08-01T15:30:00;999.9;;;28.6
79148;BMP280;68562;51.600;6.524;2023-08-01T15:35:00;1000.0;;;28.8
79148;BMP280;68562;51.600;6.524;2023-08-01T15:40:00;1000.0;;;28.9
79148;BMP280;68562;51.600;6.524;2023-08-01T15:45:00;1000.0;;;29.1
79148;BMP280;68562;51.600;6.524;2023-08-01T15:50:00;999.9;;;28.9
79148;BMP280;68562;51.600;6.524;2023-08-01T15:55:00;1000.0;;;29.1
79148;BMP280;68562;51.600;6.524;2023-08-01T16:00:00;1000.0;;;29.3
79148;BMP280;68562;51.600;6.524;2023-08-01T16:05:00;1000.1;;;28.8
79148;BMP280;68562;51.600;6.524;2023-08-01T16:10:00;1000.1;;;28.8
79148;BMP280;68562;51.600;6.524;2023-08-01T16:15:00;1000.1;;;28.8
79148;BMP280;68562;51.600;6.524;2023-08-01T16:20:00;1000.2;;;28.8
79148;BMP280;68562;51.600;6.524;2023-08-01T16:25:00;1000.1;;;28.5
79148;BMP280;68562;51.600;6.524;2023-08-01T16:30:00;1000.2;;;27.7
79148;BMP280;68562;51.600;6.524;2023-08-01T16:35:00;1000.2;;;27.0
79148;BMP280;68562;51.600;6.524;2023-08-01T16:40:00;1000.3;;;26.7
79148;BMP280;68562;51.600;6.524;2023-08-01T16:45:00;1000.4;;;26.5
79148;BMP280;68562;51.600;6.524;2023-08-01T16:50:00;1000.3;;;26.2
79148;BMP280;68562;51.600;6.524;2023-08-01T16:55:00;1000.4;;;26.0
79148;BMP280;68562;51.600;6.524;2023-08-01T17:00:00;1000.5;;;25.8
79148;BMP280;68562;51.600;6.524;2023-08-01T17:05:00;1000.5;;;25.4
79148;BMP280;68562;51.600;6.524;2023-08-01T17:10:02;1000.5;;;24.9
79148;BMP280;68562;51.600;6.524;2023-08-01T17:15:00;1000.5;;;24.5
79148;BMP280;68562;51.600;6.524;2023-08-01T17:20:00;1000.5;;;24.1
79148;BMP280;68562;51.600;6.524;2023-08-01T17:25:00;1000.6;;;23.9
79148;BMP280;68562;51.600;6.524;2023-08-01T17:30:01;1000.6;;;23.7
79148;BMP280;68562;51.600;6.524;2023-08-01T17:35:01;1000.7;;;23.5
79148;BMP280;68562;51.600;6.524;2023-08-01T17:40:00;1000.7;;;23.3
79148;BMP280;68562;51.600;6.524;2023-08-01T17:45:00;1000.7;;;23.3
79148;BMP280;68562;51.600;6.524;2023-08-01T17:50:00;1000.7;;;23.2
79148;BMP280;68562;51.600;6.524;2023-08-01T17:55:00;1000.8;;;23.1
79148;BMP280;68562;51.600;6.524;2023-08-01T18:00:00;1000.8;;;23.1
79148;BMP280;68562;51.600;6.524;2023-08-01T18:05:00;1000.9;;;23.0
79148;BMP280;68562;51.600;6.524;2023-08-01T18:10:00;1000.9;;;23.0
79148;BMP280;68562;51.600;6.524;2023-08-01T18:15:00;1000.9;;;23.0
79148;BMP280;68562;51.600;6.524;2023-08-01T18:20:00;1001.0;;;23.0
79148;BMP280;68562;51.600;6.524;2023-08-01T18:25:00;1001.0;;;23.0
79148;BMP280;68562;51.600;6.524;2023-08-01T18:30:00;1001.0;;;22.9
79148;BMP280;68562;51.600;6.524;2023-08-01T18:35:00;1001.1;;;22.9
79148;BMP280;68562;51.600;6.524;2023-08-01T18:40:00;1001.1;;;22.9
79148;BMP280;68562;51.600;6.524;2023-08-01T18:45:00;1001.1;;;22.7
79148;BMP280;68562;51.600;6.524;2023-08-01T18:50:00;1001.1;;;22.6
79148;BMP280;68562;51.600;6.524;2023-08-01T18:55:00;1001.2;;;22.6
79148;BMP280;68562;51.600;6.524;2023-08-01T19:00:00;1001.2;;;22.5
79148;BMP280;68562;51.600;6.524;2023-08-01T19:05:04;1001.3;;;22.5
79148;BMP280;68562;51.600;6.524;2023-08-01T19:10:00;1001.3;;;22.5
79148;BMP280;68562;51.600;6.524;2023-08-01T19:15:00;1001.4;;;22.4
79148;BMP280;68562;51.600;6.524;2023-08-01T19:20:00;1001.5;;;22.5
79148;BMP280;68562;51.600;6.524;2023-08-01T19:25:00;1001.6;;;22.5
79148;BMP280;68562;51.600;6.524;2023-08-01T19:30:00;1001.7;;;22.6
79148;BMP280;68562;51.600;6.524;2023-08-01T19:35:00;1001.7;;;22.7
79148;BMP280;68562;51.600;6.524;2023-08-01T19:40:00;1001.7;;;22.7
79148;BMP280;68562;51.600;6.524;2023-08-01T19:45:00;1001.6;;;22.5
79148;BMP280;68562;51.600;6.524;2023-08-01T19:50:00;1001.7;;;22.4
79148;BMP280;68562;51.600;6.524;2023-08-01T19:55:00;1001.8;;;22.4
79148;BMP280;68562;51.600;6.524;2023-08-01T20:00:00;1001.8;;;22.4
79148;BMP280;68562;51.600;6.524;2023-08-01T20:05:00;1001.7;;;22.4
79148;BMP280;68562;51.600;6.524;2023-08-01T20:10:00;1001.8;;;22.4
79148;BMP280;68562;51.600;6.524;2023-08-01T20:15:00;1001.8;;;22.2
79148;BMP280;68562;51.600;6.524;2023-08-01T20:20:00;1001.8;;;22.2
79148;BMP280;68562;51.600;6.524;2023-08-01T20:25:00;1001.7;;;22.0
79148;BMP280;68562;51.600;6.524;2023-08-01T20:30:00;1001.8;;;22.0
79148;BMP280;68562;51.600;6.524;2023-08-01T20:35:01;1001.8;;;21.8
79148;BMP280;68562;51.600;6.524;2023-08-01T20:40:00;1001.8;;;21.8
79148;BMP280;68562;51.600;6.524;2023-08-01T20:45:00;1001.8;;;21.7
79148;BMP280;68562;51.600;6.524;2023-08-01T20:50:00;1001.8;;;21.6
79148;BMP280;68562;51.600;6.524;2023-08-01T20:55:00;1001.8;;;21.6
79148;BMP280;68562;51.600;6.524;2023-08-01T21:00:00;1001.8;;;21.4
79148;BMP280;68562;51.600;6.524;2023-08-01T21:05:00;1001.8;;;21.2
79148;BMP280;68562;51.600;6.524;2023-08-01T21:10:00;1001.7;;;21.2
79148;BMP280;68562;51.600;6.524;2023-08-01T21:15:00;1001.8;;;21.2
79148;BMP280;68562;51.600;6.524;2023-08-01T21:20:00;1001.7;;;21.2
79148;BMP280;68562;51.600;6.524;2023-08-01T21:25:00;1001.7;;;21.0
79148;BMP280;68562;51.600;6.524;2023-08-01T21:30:00;1001.7;;;20.9
79148;BMP280;68562;51.600;6.524;2023-08-01T21:35:00;1001.7;;;20.8
79148;BMP280;68562;51.600;6.524;2023-08-01T21:40:00;1001.6;;;20.7
79148;BMP280;68562;51.600;6.524;2023-08-01T21:45:00;1001.6;;;20.6
79148;BMP280;68562;51.600;6.524;2023-08-01T21:50:00;1001.6;;;20.5
79148;BMP280;68562;51.600;6.524;2023-08-01T21:55:00;1001.6;;;20.5
79148;BMP280;68562;51.600;6.524;2023-08-01T22:00:02;1001.6;;;20.5
79148;BMP280;68562;51.600;6.524;2023-08-01T22:05:00;1001.6;;;20.4
79148;BMP280;68562;51.600;6.524;2023-08-01T22:10:01;1001.6;;;20.4
79148;BMP280;68562;51.600;6.524;2023-08-01T22:15:00;1001.5;;;20.4
79148;BMP280;68562;51.600;6.524;2023-08-01T22:20:00;1001.4;;;20.5
79148;BMP280;68562;51.600;6.524;2023-08-01T22:25:00;1001.5;;;20.4
79148;BMP280;68562;51.600;6.524;2023-08-01T22:30:00;1001.5;;;20.4
79148;BMP280;68562;51.600;6.524;2023-08-01T22:35:00;1001.4;;;20.3
79148;BMP280;68562;51.600;6.524;2023-08-01T22:40:00;1001.4;;;20.2
79148;BMP280;68562;51.600;6.524;2023-08-01T22:45:00;1001.4;;;20.1
79148;BMP280;68562;51.600;6.524;2023-08-01T22:50:00;1001.5;;;20.0
79148;BMP280;68562;51.600;6.524;2023-08-01T22:55:00;1001.4;;;20.0
79148;BMP280;68562;51.600;6.524;2023-08-01T23:00:00;1001.4;;;20.0
79148;BMP280;68562;51.600;6.524;2023-08-01T23:05:00;1001.4;;;20.0
79148;BMP280;68562;51.600;6.524;2023-08-01T23:10:03;1001.4;;;20.0
79148;BMP280;68562;51.600;6.524;2023-08-01T23:15:00;1001.3;;;20.1
79148;BMP280;68562;51.600;6.524;2023-08-01T23:20:00;1001.3;;;20.0
79148;BMP280;68562;51.600;6.524;2023-08-01T23:25:00;1001.3;;;20.0
79148;BMP280;68562;51.600;6.524;2023-08-01T23:30:00;1001.2;;;20.1
79148;BMP280;68562;51.600;6.524;2023-08-01T23:35:00;1001.1;;;20.0
79148;BMP280;68562;51.600;6.524;2023-08-01T23:40:00;1001.0;;;20.0
79148;BMP280;68562;51.600;6.524;2023-08-01T23:45:00;1000.9;;;20.0
79148;BMP280;68562;51.600;6.524;2023-08-01T23:50:00;1000.9;;;20.0
79148;BMP280;68562;51.600;6.524;2023-08-01T23:55:00;1000.8;;;20.0
